sensor_id;sensor_type;location;lat;lon;timestamp;P1;durP1;ratioP1;P2;durP2;ratioP2
21979;SDS011;11154;48.558;9.234;2022-08-01T00:01:31;1.77;;;1.48;;
21979;SDS011;11154;48.558;9.234;2022-08-01T00:03:33;3.75;;;1.65;;
21979;SDS011;11154;48.558;9.234;2022-08-01T00:05:35;1.60;;;1.38;;
21979;SDS011;11154;48.558;9.234;2022-08-01T00:07:36;1.85;;;1.45;;
21979;SDS011;11154;48.558;9.234;2022-08-01T00:09:40;3.28;;;2.28;;
21979;SDS011;11154;48.558;9.234;2022-08-01T00:11:41;3.60;;;1.65;;
21979;SDS011;11154;48.558;9.234;2022-08-01T00:13:43;4.35;;;1.60;;
21979;SDS011;11154;48.558;9.234;2022-08-01T00:15:45;1.73;;;1.45;;
21979;SDS011;11154;48.558;9.234;2022-08-01T00:17:46;1.67;;;1.20;;
21979;SDS011;11154;48.558;9.234;2022-08-01T00:19:48;2.08;;;1.45;;
21979;SDS011;11154;48.558;9.234;2022-08-01T00:21:50;1.60;;;1.35;;
21979;SDS011;11154;48.558;9.234;2022-08-01T00:23:52;7.22;;;2.08;;
21979;SDS011;11154;48.558;9.234;2022-08-01T00:25:55;2.22;;;1.30;;
21979;SDS011;11154;48.558;9.234;2022-08-01T00:27:56;3.95;;;1.50;;
21979;SDS011;11154;48.558;9.234;2022-08-01T00:29:58;2.40;;;1.30;;
21979;SDS011;11154;48.558;9.234;2022-08-01T00:32:00;1.95;;;1.30;;
21979;SDS011;11154;48.558;9.234;2022-08-01T00:34:01;3.80;;;1.35;;
21979;SDS011;11154;48.558;9.234;2022-08-01T00:36:03;2.67;;;1.83;;
21979;SDS011;11154;48.558;9.234;2022-08-01T00:38:05;3.03;;;1.55;;
21979;SDS011;11154;48.558;9.234;2022-08-01T00:40:07;1.88;;;1.40;;
21979;SDS011;11154;48.558;9.234;2022-08-01T00:42:11;1.67;;;1.42;;
21979;SDS011;11154;48.558;9.234;2022-08-01T00:44:13;1.67;;;1.40;;
21979;SDS011;11154;48.558;9.234;2022-08-01T00:46:15;4.47;;;1.50;;
21979;SDS011;11154;48.558;9.234;2022-08-01T00:48:17;1.73;;;1.40;;
21979;SDS011;11154;48.558;9.234;2022-08-01T00:50:18;1.80;;;1.55;;
21979;SDS011;11154;48.558;9.234;2022-08-01T00:52:20;1.95;;;1.48;;
21979;SDS011;11154;48.558;9.234;2022-08-01T00:54:22;1.85;;;1.45;;
21979;SDS011;11154;48.558;9.234;2022-08-01T00:56:26;1.77;;;1.50;;
21979;SDS011;11154;48.558;9.234;2022-08-01T00:58:30;2.20;;;1.40;;
21979;SDS011;11154;48.558;9.234;2022-08-01T01:00:33;2.92;;;1.20;;
21979;SDS011;11154;48.558;9.234;2022-08-01T01:02:35;2.83;;;1.45;;
21979;SDS011;11154;48.558;9.234;2022-08-01T01:04:37;2.25;;;1.50;;
21979;SDS011;11154;48.558;9.234;2022-08-01T01:06:41;2.33;;;1.50;;
21979;SDS011;11154;48.558;9.234;2022-08-01T01:08:49;2.10;;;1.55;;
21979;SDS011;11154;48.558;9.234;2022-08-01T01:10:58;1.40;;;1.25;;
21979;SDS011;11154;48.558;9.234;2022-08-01T01:13:06;2.58;;;1.40;;
21979;SDS011;11154;48.558;9.234;2022-08-01T01:15:14;3.72;;;1.45;;
21979;SDS011;11154;48.558;9.234;2022-08-01T01:17:21;3.70;;;1.45;;
21979;SDS011;11154;48.558;9.234;2022-08-01T01:19:30;2.80;;;1.80;;
21979;SDS011;11154;48.558;9.234;2022-08-01T01:21:38;1.50;;;1.40;;
21979;SDS011;11154;48.558;9.234;2022-08-01T01:23:50;2.03;;;1.40;;
21979;SDS011;11154;48.558;9.234;2022-08-01T01:26:17;1.85;;;1.35;;
21979;SDS011;11154;48.558;9.234;2022-08-01T01:28:30;3.20;;;1.30;;
21979;SDS011;11154;48.558;9.234;2022-08-01T01:30:37;5.00;;;1.40;;
21979;SDS011;11154;48.558;9.234;2022-08-01T01:32:43;1.73;;;1.45;;
21979;SDS011;11154;48.558;9.234;2022-08-01T01:34:48;2.08;;;1.33;;
21979;SDS011;11154;48.558;9.234;2022-08-01T01:36:52;4.80;;;1.20;;
21979;SDS011;11154;48.558;9.234;2022-08-01T01:38:57;2.33;;;1.73;;
21979;SDS011;11154;48.558;9.234;2022-08-01T01:40:59;2.42;;;1.40;;
21979;SDS011;11154;48.558;9.234;2022-08-01T01:43:03;3.55;;;1.48;;
21979;SDS011;11154;48.558;9.234;2022-08-01T01:45:10;1.48;;;1.27;;
21979;SDS011;11154;48.558;9.234;2022-08-01T01:47:14;1.83;;;1.40;;
21979;SDS011;11154;48.558;9.234;2022-08-01T01:49:18;2.53;;;1.70;;
21979;SDS011;11154;48.558;9.234;2022-08-01T01:51:22;2.88;;;1.17;;
21979;SDS011;11154;48.558;9.234;2022-08-01T01:53:26;3.25;;;1.60;;
21979;SDS011;11154;48.558;9.234;2022-08-01T01:55:30;2.38;;;1.50;;
21979;SDS011;11154;48.558;9.234;2022-08-01T01:57:35;2.92;;;1.50;;
21979;SDS011;11154;48.558;9.234;2022-08-01T01:59:39;3.65;;;1.70;;
21979;SDS011;11154;48.558;9.234;2022-08-01T02:01:43;4.60;;;1.60;;
21979;SDS011;11154;48.558;9.234;2022-08-01T02:03:47;1.92;;;1.60;;
21979;SDS011;11154;48.558;9.234;2022-08-01T02:05:51;2.65;;;1.20;;
21979;SDS011;11154;48.558;9.234;2022-08-01T02:07:54;1.60;;;1.40;;
21979;SDS011;11154;48.558;9.234;2022-08-01T02:09:56;1.65;;;1.20;;
21979;SDS011;11154;48.558;9.234;2022-08-01T02:11:59;2.63;;;1.67;;
21979;SDS011;11154;48.558;9.234;2022-08-01T02:14:03;1.77;;;1.23;;
21979;SDS011;11154;48.558;9.234;2022-08-01T02:16:05;1.65;;;1.35;;
21979;SDS011;11154;48.558;9.234;2022-08-01T02:18:11;1.80;;;1.60;;
21979;SDS011;11154;48.558;9.234;2022-08-01T02:20:16;6.07;;;1.50;;
21979;SDS011;11154;48.558;9.234;2022-08-01T02:22:19;1.38;;;1.27;;
21979;SDS011;11154;48.558;9.234;2022-08-01T02:24:28;2.20;;;1.27;;
21979;SDS011;11154;48.558;9.234;2022-08-01T02:26:36;1.35;;;1.23;;
21979;SDS011;11154;48.558;9.234;2022-08-01T02:28:43;3.83;;;1.40;;
21979;SDS011;11154;48.558;9.234;2022-08-01T02:30:48;1.50;;;1.40;;
21979;SDS011;11154;48.558;9.234;2022-08-01T02:32:52;1.55;;;1.40;;
21979;SDS011;11154;48.558;9.234;2022-08-01T02:35:00;3.95;;;1.70;;
21979;SDS011;11154;48.558;9.234;2022-08-01T02:37:05;4.85;;;1.67;;
21979;SDS011;11154;48.558;9.234;2022-08-01T02:39:07;2.20;;;1.55;;
21979;SDS011;11154;48.558;9.234;2022-08-01T02:41:11;2.40;;;1.65;;
21979;SDS011;11154;48.558;9.234;2022-08-01T02:43:18;3.08;;;1.63;;
21979;SDS011;11154;48.558;9.234;2022-08-01T02:45:24;1.50;;;1.40;;
21979;SDS011;11154;48.558;9.234;2022-08-01T02:47:27;3.50;;;1.70;;
21979;SDS011;11154;48.558;9.234;2022-08-01T02:49:33;2.85;;;1.80;;
21979;SDS011;11154;48.558;9.234;2022-08-01T02:51:37;1.83;;;1.30;;
21979;SDS011;11154;48.558;9.234;2022-08-01T02:53:43;3.00;;;1.50;;
21979;SDS011;11154;48.558;9.234;2022-08-01T02:55:47;1.73;;;1.40;;
21979;SDS011;11154;48.558;9.234;2022-08-01T02:57:50;1.83;;;1.63;;
21979;SDS011;11154;48.558;9.234;2022-08-01T02:59:54;2.55;;;1.80;;
21979;SDS011;11154;48.558;9.234;2022-08-01T03:01:59;1.60;;;1.50;;
21979;SDS011;11154;48.558;9.234;2022-08-01T03:04:05;2.47;;;1.45;;
21979;SDS011;11154;48.558;9.234;2022-08-01T03:06:07;2.67;;;1.60;;
21979;SDS011;11154;48.558;9.234;2022-08-01T03:08:10;2.25;;;1.80;;
21979;SDS011;11154;48.558;9.234;2022-08-01T03:10:15;2.35;;;1.80;;
21979;SDS011;11154;48.558;9.234;2022-08-01T03:12:18;1.70;;;1.50;;
21979;SDS011;11154;48.558;9.234;2022-08-01T03:14:24;1.67;;;1.35;;
21979;SDS011;11154;48.558;9.234;2022-08-01T03:16:27;1.95;;;1.30;;
21979;SDS011;11154;48.558;9.234;2022-08-01T03:18:31;3.90;;;1.77;;
21979;SDS011;11154;48.558;9.234;2022-08-01T03:20:34;1.42;;;1.33;;
21979;SDS011;11154;48.558;9.234;2022-08-01T03:22:36;2.53;;;1.40;;
21979;SDS011;11154;48.558;9.234;2022-08-01T03:24:40;2.55;;;1.40;;
21979;SDS011;11154;48.558;9.234;2022-08-01T03:26:45;2.25;;;1.63;;
21979;SDS011;11154;48.558;9.234;2022-08-01T03:28:48;2.75;;;1.50;;
21979;SDS011;11154;48.558;9.234;2022-08-01T03:30:52;1.92;;;1.70;;
21979;SDS011;11154;48.558;9.234;2022-08-01T03:32:55;1.73;;;1.63;;
21979;SDS011;11154;48.558;9.234;2022-08-01T03:34:57;2.25;;;1.60;;
21979;SDS011;11154;48.558;9.234;2022-08-01T03:37:01;2.42;;;1.70;;
21979;SDS011;11154;48.558;9.234;2022-08-01T03:39:06;2.10;;;1.60;;
21979;SDS011;11154;48.558;9.234;2022-08-01T03:41:13;2.65;;;1.85;;
21979;SDS011;11154;48.558;9.234;2022-08-01T03:43:24;2.72;;;1.50;;
21979;SDS011;11154;48.558;9.234;2022-08-01T03:45:34;2.17;;;1.77;;
21979;SDS011;11154;48.558;9.234;2022-08-01T03:47:38;2.63;;;1.58;;
21979;SDS011;11154;48.558;9.234;2022-08-01T03:49:44;1.67;;;1.58;;
21979;SDS011;11154;48.558;9.234;2022-08-01T03:51:49;2.97;;;1.98;;
21979;SDS011;11154;48.558;9.234;2022-08-01T03:53:52;2.65;;;1.80;;
21979;SDS011;11154;48.558;9.234;2022-08-01T03:55:56;2.65;;;1.65;;
21979;SDS011;11154;48.558;9.234;2022-08-01T03:58:01;1.80;;;1.70;;
21979;SDS011;11154;48.558;9.234;2022-08-01T04:00:06;2.90;;;1.75;;
21979;SDS011;11154;48.558;9.234;2022-08-01T04:02:09;1.80;;;1.45;;
21979;SDS011;11154;48.558;9.234;2022-08-01T04:04:11;2.40;;;1.80;;
21979;SDS011;11154;48.558;9.234;2022-08-01T04:06:13;2.95;;;1.70;;
21979;SDS011;11154;48.558;9.234;2022-08-01T04:08:15;2.72;;;1.95;;
21979;SDS011;11154;48.558;9.234;2022-08-01T04:10:17;2.92;;;1.90;;
21979;SDS011;11154;48.558;9.234;2022-08-01T04:12:19;2.72;;;1.77;;
21979;SDS011;11154;48.558;9.234;2022-08-01T04:14:20;2.38;;;1.65;;
21979;SDS011;11154;48.558;9.234;2022-08-01T04:16:24;3.55;;;1.80;;
21979;SDS011;11154;48.558;9.234;2022-08-01T04:18:26;1.98;;;1.70;;
21979;SDS011;11154;48.558;9.234;2022-08-01T04:20:28;2.67;;;1.83;;
21979;SDS011;11154;48.558;9.234;2022-08-01T04:22:29;2.17;;;1.90;;
21979;SDS011;11154;48.558;9.234;2022-08-01T04:24:31;1.60;;;1.50;;
21979;SDS011;11154;48.558;9.234;2022-08-01T04:26:36;3.05;;;2.15;;
21979;SDS011;11154;48.558;9.234;2022-08-01T04:28:40;3.65;;;2.70;;
21979;SDS011;11154;48.558;9.234;2022-08-01T04:30:44;3.45;;;2.00;;
21979;SDS011;11154;48.558;9.234;2022-08-01T04:32:51;2.45;;;1.70;;
21979;SDS011;11154;48.558;9.234;2022-08-01T04:34:55;2.08;;;1.67;;
21979;SDS011;11154;48.558;9.234;2022-08-01T04:37:01;1.70;;;1.60;;
21979;SDS011;11154;48.558;9.234;2022-08-01T04:39:05;2.75;;;2.00;;
21979;SDS011;11154;48.558;9.234;2022-08-01T04:41:08;1.92;;;1.73;;
21979;SDS011;11154;48.558;9.234;2022-08-01T04:43:13;2.28;;;1.88;;
21979;SDS011;11154;48.558;9.234;2022-08-01T04:45:15;3.25;;;2.00;;
21979;SDS011;11154;48.558;9.234;2022-08-01T04:47:17;2.20;;;1.83;;
21979;SDS011;11154;48.558;9.234;2022-08-01T04:49:21;2.25;;;1.85;;
21979;SDS011;11154;48.558;9.234;2022-08-01T04:51:23;3.03;;;2.00;;
21979;SDS011;11154;48.558;9.234;2022-08-01T04:53:24;2.70;;;1.90;;
21979;SDS011;11154;48.558;9.234;2022-08-01T04:55:26;2.92;;;2.08;;
21979;SDS011;11154;48.558;9.234;2022-08-01T04:57:28;2.58;;;2.15;;
21979;SDS011;11154;48.558;9.234;2022-08-01T04:59:31;1.85;;;1.73;;
21979;SDS011;11154;48.558;9.234;2022-08-01T05:01:42;3.08;;;2.00;;
21979;SDS011;11154;48.558;9.234;2022-08-01T05:03:48;2.20;;;1.98;;
21979;SDS011;11154;48.558;9.234;2022-08-01T05:05:51;3.40;;;1.90;;
21979;SDS011;11154;48.558;9.234;2022-08-01T05:07:53;2.53;;;2.22;;
21979;SDS011;11154;48.558;9.234;2022-08-01T05:09:55;2.13;;;1.80;;
21979;SDS011;11154;48.558;9.234;2022-08-01T05:11:57;2.22;;;1.90;;
21979;SDS011;11154;48.558;9.234;2022-08-01T05:13:59;2.75;;;1.70;;
21979;SDS011;11154;48.558;9.234;2022-08-01T05:16:01;2.75;;;1.98;;
21979;SDS011;11154;48.558;9.234;2022-08-01T05:18:03;2.35;;;2.00;;
21979;SDS011;11154;48.558;9.234;2022-08-01T05:20:07;2.58;;;2.08;;
21979;SDS011;11154;48.558;9.234;2022-08-01T05:22:10;4.65;;;2.50;;
21979;SDS011;11154;48.558;9.234;2022-08-01T05:24:12;2.30;;;1.80;;
21979;SDS011;11154;48.558;9.234;2022-08-01T05:26:14;2.80;;;2.03;;
21979;SDS011;11154;48.558;9.234;2022-08-01T05:28:15;3.33;;;1.92;;
21979;SDS011;11154;48.558;9.234;2022-08-01T05:30:17;2.45;;;1.70;;
21979;SDS011;11154;48.558;9.234;2022-08-01T05:32:19;3.40;;;1.90;;
21979;SDS011;11154;48.558;9.234;2022-08-01T05:34:21;4.22;;;1.80;;
21979;SDS011;11154;48.558;9.234;2022-08-01T05:36:23;3.05;;;2.20;;
21979;SDS011;11154;48.558;9.234;2022-08-01T05:38:26;2.17;;;1.73;;
21979;SDS011;11154;48.558;9.234;2022-08-01T05:40:28;2.58;;;1.90;;
21979;SDS011;11154;48.558;9.234;2022-08-01T05:42:30;4.93;;;2.03;;
21979;SDS011;11154;48.558;9.234;2022-08-01T05:44:31;2.60;;;1.73;;
21979;SDS011;11154;48.558;9.234;2022-08-01T05:46:33;2.38;;;1.90;;
21979;SDS011;11154;48.558;9.234;2022-08-01T05:48:35;3.22;;;1.85;;
21979;SDS011;11154;48.558;9.234;2022-08-01T05:50:36;2.58;;;1.90;;
21979;SDS011;11154;48.558;9.234;2022-08-01T05:52:38;2.13;;;1.92;;
21979;SDS011;11154;48.558;9.234;2022-08-01T05:54:41;2.25;;;2.00;;
21979;SDS011;11154;48.558;9.234;2022-08-01T05:56:43;1.95;;;1.85;;
21979;SDS011;11154;48.558;9.234;2022-08-01T05:58:45;2.15;;;1.95;;
21979;SDS011;11154;48.558;9.234;2022-08-01T06:00:46;3.25;;;1.98;;
21979;SDS011;11154;48.558;9.234;2022-08-01T06:02:48;3.22;;;2.08;;
21979;SDS011;11154;48.558;9.234;2022-08-01T06:04:50;4.10;;;1.85;;
21979;SDS011;11154;48.558;9.234;2022-08-01T06:06:51;3.95;;;2.10;;
21979;SDS011;11154;48.558;9.234;2022-08-01T06:08:53;2.38;;;2.00;;
21979;SDS011;11154;48.558;9.234;2022-08-01T06:10:56;5.70;;;2.42;;
21979;SDS011;11154;48.558;9.234;2022-08-01T06:12:58;2.88;;;2.22;;
21979;SDS011;11154;48.558;9.234;2022-08-01T06:15:03;2.70;;;2.10;;
21979;SDS011;11154;48.558;9.234;2022-08-01T06:17:05;2.78;;;2.10;;
21979;SDS011;11154;48.558;9.234;2022-08-01T06:19:07;2.65;;;2.20;;
21979;SDS011;11154;48.558;9.234;2022-08-01T06:21:09;2.20;;;2.00;;
21979;SDS011;11154;48.558;9.234;2022-08-01T06:23:10;3.05;;;2.25;;
21979;SDS011;11154;48.558;9.234;2022-08-01T06:25:13;2.72;;;2.20;;
21979;SDS011;11154;48.558;9.234;2022-08-01T06:27:16;2.63;;;2.38;;
21979;SDS011;11154;48.558;9.234;2022-08-01T06:29:18;2.47;;;2.28;;
21979;SDS011;11154;48.558;9.234;2022-08-01T06:31:19;3.00;;;2.20;;
21979;SDS011;11154;48.558;9.234;2022-08-01T06:33:21;3.25;;;2.05;;
21979;SDS011;11154;48.558;9.234;2022-08-01T06:35:23;2.78;;;2.28;;
21979;SDS011;11154;48.558;9.234;2022-08-01T06:37:28;3.35;;;2.20;;
21979;SDS011;11154;48.558;9.234;2022-08-01T06:39:30;2.53;;;2.28;;
21979;SDS011;11154;48.558;9.234;2022-08-01T06:41:32;2.10;;;1.80;;
21979;SDS011;11154;48.558;9.234;2022-08-01T06:43:35;3.83;;;2.10;;
21979;SDS011;11154;48.558;9.234;2022-08-01T06:45:37;7.80;;;2.65;;
21979;SDS011;11154;48.558;9.234;2022-08-01T06:47:39;2.80;;;2.00;;
21979;SDS011;11154;48.558;9.234;2022-08-01T06:49:41;2.97;;;2.40;;
21979;SDS011;11154;48.558;9.234;2022-08-01T06:51:43;3.78;;;2.30;;
21979;SDS011;11154;48.558;9.234;2022-08-01T06:53:45;4.85;;;2.40;;
21979;SDS011;11154;48.558;9.234;2022-08-01T06:55:46;3.83;;;2.20;;
21979;SDS011;11154;48.558;9.234;2022-08-01T06:57:48;3.17;;;2.15;;
21979;SDS011;11154;48.558;9.234;2022-08-01T06:59:53;3.08;;;2.10;;
21979;SDS011;11154;48.558;9.234;2022-08-01T07:01:55;2.65;;;2.08;;
21979;SDS011;11154;48.558;9.234;2022-08-01T07:03:57;2.67;;;2.38;;
21979;SDS011;11154;48.558;9.234;2022-08-01T07:05:58;4.20;;;2.08;;
21979;SDS011;11154;48.558;9.234;2022-08-01T07:08:00;2.75;;;2.22;;
21979;SDS011;11154;48.558;9.234;2022-08-01T07:10:02;5.28;;;2.47;;
21979;SDS011;11154;48.558;9.234;2022-08-01T07:12:04;2.65;;;2.10;;
21979;SDS011;11154;48.558;9.234;2022-08-01T07:14:06;2.40;;;2.20;;
21979;SDS011;11154;48.558;9.234;2022-08-01T07:16:09;2.50;;;2.30;;
21979;SDS011;11154;48.558;9.234;2022-08-01T07:18:11;3.42;;;2.40;;
21979;SDS011;11154;48.558;9.234;2022-08-01T07:20:13;4.60;;;2.63;;
21979;SDS011;11154;48.558;9.234;2022-08-01T07:22:15;2.72;;;2.38;;
21979;SDS011;11154;48.558;9.234;2022-08-01T07:24:17;3.47;;;2.17;;
21979;SDS011;11154;48.558;9.234;2022-08-01T07:26:19;5.50;;;2.45;;
21979;SDS011;11154;48.558;9.234;2022-08-01T07:28:20;4.32;;;2.00;;
21979;SDS011;11154;48.558;9.234;2022-08-01T07:30:22;2.67;;;2.10;;
21979;SDS011;11154;48.558;9.234;2022-08-01T07:32:25;2.75;;;2.08;;
21979;SDS011;11154;48.558;9.234;2022-08-01T07:34:26;4.25;;;2.28;;
21979;SDS011;11154;48.558;9.234;2022-08-01T07:36:28;2.42;;;1.92;;
21979;SDS011;11154;48.558;9.234;2022-08-01T07:38:30;5.13;;;2.33;;
21979;SDS011;11154;48.558;9.234;2022-08-01T07:40:32;4.05;;;2.40;;
21979;SDS011;11154;48.558;9.234;2022-08-01T07:42:34;3.85;;;2.30;;
21979;SDS011;11154;48.558;9.234;2022-08-01T07:44:36;2.33;;;2.03;;
21979;SDS011;11154;48.558;9.234;2022-08-01T07:46:37;3.50;;;2.35;;
21979;SDS011;11154;48.558;9.234;2022-08-01T07:48:40;2.42;;;1.98;;
21979;SDS011;11154;48.558;9.234;2022-08-01T07:50:42;4.60;;;2.20;;
21979;SDS011;11154;48.558;9.234;2022-08-01T07:52:44;3.13;;;2.28;;
21979;SDS011;11154;48.558;9.234;2022-08-01T07:54:46;2.40;;;2.20;;
21979;SDS011;11154;48.558;9.234;2022-08-01T07:56:47;2.33;;;2.10;;
21979;SDS011;11154;48.558;9.234;2022-08-01T07:58:49;2.20;;;2.00;;
21979;SDS011;11154;48.558;9.234;2022-08-01T08:00:51;2.00;;;1.88;;
21979;SDS011;11154;48.558;9.234;2022-08-01T08:02:53;2.25;;;2.03;;
21979;SDS011;11154;48.558;9.234;2022-08-01T08:04:56;3.30;;;1.98;;
21979;SDS011;11154;48.558;9.234;2022-08-01T08:06:57;3.25;;;2.40;;
21979;SDS011;11154;48.558;9.234;2022-08-01T08:08:59;2.70;;;2.03;;
21979;SDS011;11154;48.558;9.234;2022-08-01T08:11:01;3.15;;;2.08;;
21979;SDS011;11154;48.558;9.234;2022-08-01T08:13:02;4.95;;;2.22;;
21979;SDS011;11154;48.558;9.234;2022-08-01T08:15:04;3.92;;;2.15;;
21979;SDS011;11154;48.558;9.234;2022-08-01T08:17:06;2.95;;;2.53;;
21979;SDS011;11154;48.558;9.234;2022-08-01T08:19:08;5.90;;;2.60;;
21979;SDS011;11154;48.558;9.234;2022-08-01T08:21:11;4.15;;;2.20;;
21979;SDS011;11154;48.558;9.234;2022-08-01T08:23:13;2.42;;;1.83;;
21979;SDS011;11154;48.558;9.234;2022-08-01T08:25:46;3.80;;;1.73;;
21979;SDS011;11154;48.558;9.234;2022-08-01T08:27:48;1.48;;;1.38;;
21979;SDS011;11154;48.558;9.234;2022-08-01T08:29:49;4.20;;;1.55;;
21979;SDS011;11154;48.558;9.234;2022-08-01T08:31:51;1.73;;;1.50;;
21979;SDS011;11154;48.558;9.234;2022-08-01T08:33:54;2.08;;;1.88;;
21979;SDS011;11154;48.558;9.234;2022-08-01T08:35:56;1.98;;;1.83;;
21979;SDS011;11154;48.558;9.234;2022-08-01T08:37:59;2.65;;;1.75;;
21979;SDS011;11154;48.558;9.234;2022-08-01T08:40:01;2.30;;;1.98;;
21979;SDS011;11154;48.558;9.234;2022-08-01T08:42:05;2.78;;;1.80;;
21979;SDS011;11154;48.558;9.234;2022-08-01T08:44:08;3.47;;;1.55;;
21979;SDS011;11154;48.558;9.234;2022-08-01T08:46:12;5.10;;;1.70;;
21979;SDS011;11154;48.558;9.234;2022-08-01T08:48:15;2.78;;;1.60;;
21979;SDS011;11154;48.558;9.234;2022-08-01T08:50:17;2.28;;;1.60;;
21979;SDS011;11154;48.558;9.234;2022-08-01T08:52:20;2.55;;;1.85;;
21979;SDS011;11154;48.558;9.234;2022-08-01T08:54:23;2.25;;;1.73;;
21979;SDS011;11154;48.558;9.234;2022-08-01T08:56:26;3.00;;;1.70;;
21979;SDS011;11154;48.558;9.234;2022-08-01T08:58:33;2.10;;;1.80;;
21979;SDS011;11154;48.558;9.234;2022-08-01T09:00:37;2.47;;;1.50;;
21979;SDS011;11154;48.558;9.234;2022-08-01T09:02:40;1.90;;;1.75;;
21979;SDS011;11154;48.558;9.234;2022-08-01T09:04:43;1.60;;;1.50;;
21979;SDS011;11154;48.558;9.234;2022-08-01T09:06:45;2.33;;;1.48;;
21979;SDS011;11154;48.558;9.234;2022-08-01T09:08:47;3.97;;;1.90;;
21979;SDS011;11154;48.558;9.234;2022-08-01T09:10:50;2.13;;;1.63;;
21979;SDS011;11154;48.558;9.234;2022-08-01T09:13:02;3.20;;;1.70;;
21979;SDS011;11154;48.558;9.234;2022-08-01T09:15:06;1.83;;;1.60;;
21979;SDS011;11154;48.558;9.234;2022-08-01T09:17:08;3.53;;;1.90;;
21979;SDS011;11154;48.558;9.234;2022-08-01T09:19:13;2.70;;;1.90;;
21979;SDS011;11154;48.558;9.234;2022-08-01T09:21:16;3.03;;;2.13;;
21979;SDS011;11154;48.558;9.234;2022-08-01T09:23:30;1.73;;;1.45;;
21979;SDS011;11154;48.558;9.234;2022-08-01T09:25:35;1.73;;;1.50;;
21979;SDS011;11154;48.558;9.234;2022-08-01T09:28:01;2.35;;;1.70;;
21979;SDS011;11154;48.558;9.234;2022-08-01T09:30:10;2.85;;;1.98;;
21979;SDS011;11154;48.558;9.234;2022-08-01T09:32:13;1.70;;;1.60;;
21979;SDS011;11154;48.558;9.234;2022-08-01T09:34:15;1.80;;;1.45;;
21979;SDS011;11154;48.558;9.234;2022-08-01T09:36:18;1.52;;;1.40;;
21979;SDS011;11154;48.558;9.234;2022-08-01T09:38:21;3.80;;;1.67;;
21979;SDS011;11154;48.558;9.234;2022-08-01T09:40:24;2.90;;;1.83;;
21979;SDS011;11154;48.558;9.234;2022-08-01T09:42:27;3.10;;;1.60;;
21979;SDS011;11154;48.558;9.234;2022-08-01T09:44:38;4.28;;;1.70;;
21979;SDS011;11154;48.558;9.234;2022-08-01T09:46:50;1.95;;;1.50;;
21979;SDS011;11154;48.558;9.234;2022-08-01T09:48:57;1.73;;;1.55;;
21979;SDS011;11154;48.558;9.234;2022-08-01T09:51:00;2.10;;;1.88;;
21979;SDS011;11154;48.558;9.234;2022-08-01T09:53:02;2.60;;;1.92;;
21979;SDS011;11154;48.558;9.234;2022-08-01T09:55:05;2.30;;;2.10;;
21979;SDS011;11154;48.558;9.234;2022-08-01T09:57:09;1.92;;;1.80;;
21979;SDS011;11154;48.558;9.234;2022-08-01T09:59:14;2.35;;;1.50;;
21979;SDS011;11154;48.558;9.234;2022-08-01T10:01:16;2.15;;;1.80;;
21979;SDS011;11154;48.558;9.234;2022-08-01T10:03:20;2.28;;;1.60;;
21979;SDS011;11154;48.558;9.234;2022-08-01T10:05:29;3.45;;;1.90;;
21979;SDS011;11154;48.558;9.234;2022-08-01T10:07:31;1.90;;;1.52;;
21979;SDS011;11154;48.558;9.234;2022-08-01T10:09:34;2.50;;;1.60;;
21979;SDS011;11154;48.558;9.234;2022-08-01T10:11:37;4.00;;;1.67;;
21979;SDS011;11154;48.558;9.234;2022-08-01T10:13:41;1.90;;;1.70;;
21979;SDS011;11154;48.558;9.234;2022-08-01T10:15:44;2.42;;;1.95;;
21979;SDS011;11154;48.558;9.234;2022-08-01T10:17:47;2.28;;;1.80;;
21979;SDS011;11154;48.558;9.234;2022-08-01T10:19:54;3.90;;;1.83;;
21979;SDS011;11154;48.558;9.234;2022-08-01T10:21:57;2.63;;;1.98;;
21979;SDS011;11154;48.558;9.234;2022-08-01T10:24:00;1.80;;;1.70;;
21979;SDS011;11154;48.558;9.234;2022-08-01T10:26:04;1.90;;;1.70;;
21979;SDS011;11154;48.558;9.234;2022-08-01T10:28:09;2.40;;;1.70;;
21979;SDS011;11154;48.558;9.234;2022-08-01T10:30:15;2.33;;;1.73;;
21979;SDS011;11154;48.558;9.234;2022-08-01T10:32:18;2.35;;;1.90;;
21979;SDS011;11154;48.558;9.234;2022-08-01T10:34:20;2.85;;;1.77;;
21979;SDS011;11154;48.558;9.234;2022-08-01T10:36:24;2.28;;;1.80;;
21979;SDS011;11154;48.558;9.234;2022-08-01T10:38:26;1.80;;;1.70;;
21979;SDS011;11154;48.558;9.234;2022-08-01T10:40:29;2.47;;;1.98;;
21979;SDS011;11154;48.558;9.234;2022-08-01T10:42:32;5.35;;;2.00;;
21979;SDS011;11154;48.558;9.234;2022-08-01T10:44:35;2.20;;;2.00;;
21979;SDS011;11154;48.558;9.234;2022-08-01T10:46:38;2.75;;;2.08;;
21979;SDS011;11154;48.558;9.234;2022-08-01T10:48:47;7.05;;;2.17;;
21979;SDS011;11154;48.558;9.234;2022-08-01T10:50:54;3.50;;;1.75;;
21979;SDS011;11154;48.558;9.234;2022-08-01T10:53:12;2.13;;;1.92;;
21979;SDS011;11154;48.558;9.234;2022-08-01T10:55:16;3.50;;;1.70;;
21979;SDS011;11154;48.558;9.234;2022-08-01T10:57:17;2.75;;;1.70;;
21979;SDS011;11154;48.558;9.234;2022-08-01T10:59:20;1.70;;;1.60;;
21979;SDS011;11154;48.558;9.234;2022-08-01T11:01:23;2.00;;;1.80;;
21979;SDS011;11154;48.558;9.234;2022-08-01T11:03:32;2.30;;;2.08;;
21979;SDS011;11154;48.558;9.234;2022-08-01T11:05:37;2.28;;;1.83;;
21979;SDS011;11154;48.558;9.234;2022-08-01T11:07:43;2.28;;;1.90;;
21979;SDS011;11154;48.558;9.234;2022-08-01T11:09:50;1.70;;;1.60;;
21979;SDS011;11154;48.558;9.234;2022-08-01T11:12:05;4.07;;;1.90;;
21979;SDS011;11154;48.558;9.234;2022-08-01T11:14:09;2.70;;;1.85;;
21979;SDS011;11154;48.558;9.234;2022-08-01T11:16:25;2.50;;;1.70;;
21979;SDS011;11154;48.558;9.234;2022-08-01T11:18:29;1.85;;;1.70;;
21979;SDS011;11154;48.558;9.234;2022-08-01T11:20:33;2.70;;;1.90;;
21979;SDS011;11154;48.558;9.234;2022-08-01T11:28:16;2.28;;;2.05;;
21979;SDS011;11154;48.558;9.234;2022-08-01T11:30:24;4.95;;;2.47;;
21979;SDS011;11154;48.558;9.234;2022-08-01T11:32:26;4.10;;;2.65;;
21979;SDS011;11154;48.558;9.234;2022-08-01T11:39:27;4.65;;;2.70;;
21979;SDS011;11154;48.558;9.234;2022-08-01T11:41:31;3.67;;;2.42;;
21979;SDS011;11154;48.558;9.234;2022-08-01T11:43:33;5.53;;;3.03;;
21979;SDS011;11154;48.558;9.234;2022-08-01T11:45:46;2.90;;;2.70;;
21979;SDS011;11154;48.558;9.234;2022-08-01T11:47:49;4.30;;;2.85;;
21979;SDS011;11154;48.558;9.234;2022-08-01T11:49:51;3.97;;;2.80;;
21979;SDS011;11154;48.558;9.234;2022-08-01T11:51:58;3.80;;;2.72;;
21979;SDS011;11154;48.558;9.234;2022-08-01T11:54:01;4.50;;;2.80;;
21979;SDS011;11154;48.558;9.234;2022-08-01T11:56:03;8.75;;;2.90;;
21979;SDS011;11154;48.558;9.234;2022-08-01T11:58:06;7.93;;;3.00;;
21979;SDS011;11154;48.558;9.234;2022-08-01T12:00:10;3.33;;;2.65;;
21979;SDS011;11154;48.558;9.234;2022-08-01T12:02:17;4.72;;;3.28;;
21979;SDS011;11154;48.558;9.234;2022-08-01T12:04:20;5.85;;;2.90;;
21979;SDS011;11154;48.558;9.234;2022-08-01T12:06:26;3.53;;;2.85;;
21979;SDS011;11154;48.558;9.234;2022-08-01T12:08:29;4.50;;;2.88;;
21979;SDS011;11154;48.558;9.234;2022-08-01T12:10:33;3.92;;;3.00;;
21979;SDS011;11154;48.558;9.234;2022-08-01T12:12:40;4.40;;;3.10;;
21979;SDS011;11154;48.558;9.234;2022-08-01T12:14:45;3.20;;;2.90;;
21979;SDS011;11154;48.558;9.234;2022-08-01T12:16:55;6.10;;;2.78;;
21979;SDS011;11154;48.558;9.234;2022-08-01T12:18:57;3.83;;;2.80;;
21979;SDS011;11154;48.558;9.234;2022-08-01T12:21:02;4.05;;;2.60;;
21979;SDS011;11154;48.558;9.234;2022-08-01T12:23:05;3.88;;;2.92;;
21979;SDS011;11154;48.558;9.234;2022-08-01T12:25:08;4.63;;;2.60;;
21979;SDS011;11154;48.558;9.234;2022-08-01T12:27:12;4.40;;;2.75;;
21979;SDS011;11154;48.558;9.234;2022-08-01T12:29:32;3.65;;;2.80;;
21979;SDS011;11154;48.558;9.234;2022-08-01T12:31:39;5.75;;;2.92;;
21979;SDS011;11154;48.558;9.234;2022-08-01T12:33:41;3.28;;;2.85;;
21979;SDS011;11154;48.558;9.234;2022-08-01T12:35:43;4.30;;;2.60;;
21979;SDS011;11154;48.558;9.234;2022-08-01T12:37:45;4.30;;;3.00;;